createdAt,value
2023-04-09T00:02:04.438Z,81.85
2023-04-09T00:04:32.646Z,81.18
2023-04-09T00:07:00.564Z,81.43
2023-04-09T00:09:28.580Z,81.43
2023-04-09T00:11:57.199Z,81.86
2023-04-09T00:14:25.292Z,82.81
2023-04-09T00:16:53.171Z,84.37
2023-04-09T00:19:20.747Z,84.85
2023-04-09T00:21:48.509Z,84.68
2023-04-09T00:24:16.547Z,84.98
2023-04-09T00:26:44.229Z,84.27
2023-04-09T00:29:12.159Z,86.11
2023-04-09T00:31:40.207Z,87.59
2023-04-09T00:34:08.445Z,88.29
2023-04-09T00:36:36.282Z,88.78
2023-04-09T00:39:04.392Z,88.48
2023-04-09T00:41:31.919Z,88.40
2023-04-09T00:44:00.361Z,88.79
2023-04-09T00:46:28.490Z,88.71
2023-04-09T00:48:56.248Z,89.25
2023-04-09T00:51:23.904Z,89.35
2023-04-09T00:53:51.631Z,89.55
2023-04-09T00:56:18.565Z,89.87
2023-04-09T00:58:45.657Z,89.92
2023-04-09T01:01:13.680Z,90.31
2023-04-09T01:03:41.307Z,90.19
2023-04-09T01:06:08.531Z,89.07
2023-04-09T01:08:48.057Z,88.15
2023-04-09T01:11:23.850Z,86.77
2023-04-09T01:13:53.382Z,83.58
2023-04-09T01:16:24.514Z,78.32
2023-04-09T01:18:56.571Z,75.75
2023-04-09T01:21:26.673Z,75.89
2023-04-09T01:24:32.874Z,75.92
2023-04-09T01:27:06.231Z,76.78
2023-04-09T01:29:40.340Z,76.56
2023-04-09T01:32:07.457Z,76.66
2023-04-09T01:34:34.532Z,75.90
2023-04-09T01:37:02.938Z,76.32
2023-04-09T01:39:30.557Z,75.81
2023-04-09T01:41:58.225Z,75.75
2023-04-09T01:44:26.333Z,76.09
2023-04-09T01:46:53.524Z,77.04
2023-04-09T01:49:21.525Z,76.82
2023-04-09T01:51:49.649Z,77.00
2023-04-09T01:54:17.143Z,78.21
2023-04-09T01:56:45.522Z,78.42
2023-04-09T01:59:12.699Z,78.07
2023-04-09T02:01:45.125Z,78.10
2023-04-09T02:04:30.472Z,77.94
2023-04-09T02:07:09.589Z,77.96
2023-04-09T02:09:38.419Z,79.08
2023-04-09T02:12:06.945Z,80.74
2023-04-09T02:14:34.456Z,80.06
2023-04-09T02:17:02.230Z,78.94
2023-04-09T02:19:39.739Z,79.86
2023-04-09T02:22:07.603Z,79.91
2023-04-09T02:24:34.721Z,80.12
2023-04-09T02:27:06.390Z,80.57
2023-04-09T02:29:34.304Z,81.47
2023-04-09T02:32:02.796Z,81.64
2023-04-09T02:34:29.952Z,81.75
2023-04-09T02:36:57.801Z,81.78
2023-04-09T02:39:26.005Z,82.49
2023-04-09T02:41:53.939Z,82.99
2023-04-09T02:44:22.010Z,82.74
2023-04-09T02:46:51.444Z,82.68
2023-04-09T02:49:19.250Z,82.41
2023-04-09T02:51:46.855Z,81.97
2023-04-09T02:54:14.907Z,82.01
2023-04-09T02:56:42.438Z,83.18
2023-04-09T02:59:10.429Z,83.41
2023-04-09T03:01:38.424Z,82.22
2023-04-09T03:04:06.171Z,81.86
2023-04-09T03:06:34.481Z,81.09
2023-04-09T03:09:02.474Z,80.17
2023-04-09T03:11:30.619Z,80.74
2023-04-09T03:13:58.092Z,82.35
2023-04-09T03:16:26.639Z,82.33
2023-04-09T03:18:54.764Z,82.89
2023-04-09T03:21:22.887Z,83.85
2023-04-09T03:23:50.960Z,84.15
2023-04-09T03:26:18.996Z,83.45
2023-04-09T03:28:46.794Z,83.16
2023-04-09T03:31:14.919Z,83.29
2023-04-09T03:33:42.640Z,82.58
2023-04-09T03:36:10.757Z,81.52
2023-04-09T03:38:38.325Z,81.49
2023-04-09T03:41:06.154Z,82.14
2023-04-09T03:43:34.398Z,82.70
2023-04-09T03:46:02.825Z,82.44
2023-04-09T03:48:30.496Z,82.05
2023-04-09T03:50:58.011Z,81.19
2023-04-09T03:53:25.597Z,81.52
2023-04-09T03:55:53.611Z,80.26
2023-04-09T03:58:21.388Z,79.89
2023-04-09T04:00:49.315Z,79.50
2023-04-09T04:03:17.294Z,79.02
2023-04-09T04:05:45.394Z,78.47
2023-04-09T04:08:14.321Z,77.97
2023-04-09T04:10:42.396Z,77.26
2023-04-09T04:13:10.056Z,77.85
2023-04-09T04:15:43.773Z,77.76
2023-04-09T04:18:11.926Z,77.80
2023-04-09T04:20:39.712Z,77.04
2023-04-09T04:23:07.316Z,77.43
2023-04-09T04:25:35.773Z,77.44
2023-04-09T04:28:04.229Z,77.16
2023-04-09T04:30:32.557Z,76.81
2023-04-09T04:33:00.371Z,75.97
2023-04-09T04:35:31.078Z,75.25
2023-04-09T04:37:58.826Z,74.84
2023-04-09T04:40:27.005Z,74.71
2023-04-09T04:42:54.880Z,75.04
2023-04-09T04:45:22.867Z,75.33
2023-04-09T04:47:50.601Z,74.75
2023-04-09T04:50:18.424Z,75.24
2023-04-09T04:52:46.308Z,74.64
2023-04-09T04:55:14.690Z,75.48
2023-04-09T04:57:42.838Z,75.65
2023-04-09T05:00:13.340Z,75.93
2023-04-09T05:02:41.139Z,75.81
2023-04-09T05:05:09.702Z,76.05
2023-04-09T05:07:37.494Z,75.79
2023-04-09T05:10:08.158Z,75.64
2023-04-09T05:12:35.972Z,75.40
2023-04-09T05:15:04.389Z,75.12
2023-04-09T05:17:32.008Z,75.05
2023-04-09T05:19:59.819Z,75.64
2023-04-09T05:22:27.241Z,75.25
2023-04-09T05:24:55.293Z,75.17
2023-04-09T05:27:24.531Z,75.83
2023-04-09T05:29:55.569Z,75.33
2023-04-09T05:32:23.162Z,75.78
2023-04-09T05:34:51.032Z,74.74
2023-04-09T05:37:18.798Z,74.72
2023-04-09T05:39:46.878Z,74.70
2023-04-09T05:42:14.755Z,73.82
2023-04-09T05:44:42.848Z,73.59
2023-04-09T05:47:12.788Z,73.95
2023-04-09T05:49:40.320Z,72.20
2023-04-09T05:52:08.370Z,72.37
2023-04-09T05:54:36.516Z,71.07
2023-04-09T05:57:04.522Z,69.96
2023-04-09T05:59:32.461Z,68.17
2023-04-09T06:02:00.508Z,68.29
2023-04-09T06:04:28.677Z,66.44
2023-04-09T06:07:00.197Z,65.83
2023-04-09T06:09:28.443Z,65.51
2023-04-09T06:11:56.567Z,65.09
2023-04-09T06:14:27.941Z,63.81
2023-04-09T06:16:55.596Z,63.35
2023-04-09T06:19:23.835Z,62.21
2023-04-09T06:21:51.884Z,62.17
2023-04-09T06:24:20.268Z,61.78
2023-04-09T06:26:48.442Z,61.88
2023-04-09T06:29:16.664Z,61.63
2023-04-09T06:31:44.370Z,61.79
2023-04-09T06:34:12.071Z,61.48
2023-04-09T06:36:40.535Z,60.58
2023-04-09T06:39:08.397Z,60.88
2023-04-09T06:41:37.535Z,60.91
2023-04-09T06:44:05.808Z,60.54
2023-04-09T06:46:33.110Z,60.51
2023-04-09T06:49:00.863Z,60.30
2023-04-09T06:51:28.936Z,60.12
2023-04-09T06:53:57.131Z,59.91
2023-04-09T06:56:25.327Z,59.66
2023-04-09T06:58:53.448Z,59.09
2023-04-09T07:01:21.349Z,59.37
2023-04-09T07:03:48.967Z,59.26
2023-04-09T07:06:17.088Z,59.15
2023-04-09T07:08:45.355Z,58.68
2023-04-09T07:11:13.117Z,56.75
2023-04-09T07:13:40.905Z,56.37
2023-04-09T07:16:08.655Z,55.69
2023-04-09T07:18:39.706Z,55.71
2023-04-09T07:21:07.727Z,55.51
2023-04-09T07:23:36.473Z,55.62
2023-04-09T07:26:06.800Z,55.60
2023-04-09T07:28:34.429Z,55.11
2023-04-09T07:31:05.003Z,53.32
2023-04-09T07:33:33.256Z,53.62
2023-04-09T07:36:04.895Z,53.73
2023-04-09T07:38:33.217Z,53.59
2023-04-09T07:41:01.382Z,53.31
2023-04-09T07:43:29.432Z,53.22
2023-04-09T07:45:56.941Z,53.24
2023-04-09T07:48:25.159Z,53.42
2023-04-09T07:50:53.086Z,53.19
2023-04-09T07:53:20.975Z,53.37
2023-04-09T07:55:48.591Z,53.73
2023-04-09T07:58:16.131Z,53.61
2023-04-09T08:00:43.876Z,53.25
2023-04-09T08:03:11.818Z,53.23
2023-04-09T08:05:39.947Z,53.29
2023-04-09T08:08:07.574Z,53.61
2023-04-09T08:10:35.425Z,52.42
2023-04-09T08:13:03.478Z,53.03
2023-04-09T08:15:31.535Z,52.09
2023-04-09T08:17:59.547Z,52.99
2023-04-09T08:20:27.936Z,53.75
2023-04-09T08:22:55.821Z,53.63
2023-04-09T08:25:23.642Z,53.16
2023-04-09T08:27:51.692Z,51.59
2023-04-09T08:30:22.259Z,51.26
2023-04-09T08:32:50.213Z,49.68
2023-04-09T08:35:18.194Z,49.11
2023-04-09T08:37:46.291Z,48.48
2023-04-09T08:40:14.226Z,47.70
2023-04-09T08:42:48.088Z,48.10
2023-04-09T08:45:15.959Z,47.63
2023-04-09T08:47:43.753Z,47.66
2023-04-09T08:50:12.267Z,46.59
2023-04-09T08:52:40.443Z,46.32
2023-04-09T08:55:10.488Z,46.03
2023-04-09T08:57:40.123Z,46.63
2023-04-09T09:00:10.325Z,45.44
2023-04-09T09:02:39.453Z,44.72
2023-04-09T09:05:09.244Z,43.88
2023-04-09T09:07:37.435Z,44.11
2023-04-09T09:10:06.615Z,44.39
2023-04-09T09:12:41.486Z,43.35
2023-04-09T09:15:28.353Z,43.90
2023-04-09T09:17:57.358Z,44.58
2023-04-09T09:20:27.677Z,44.98
2023-04-09T09:22:56.545Z,46.27
2023-04-09T09:25:24.905Z,46.71
2023-04-09T09:27:52.250Z,47.49
2023-04-09T09:30:23.282Z,46.69
2023-04-09T09:33:29.767Z,46.33
2023-04-09T09:35:57.861Z,44.72
2023-04-09T09:38:25.152Z,43.88
2023-04-09T09:40:53.188Z,43.69
2023-04-09T09:43:24.686Z,44.35
2023-04-09T09:45:51.903Z,43.83
2023-04-09T09:48:19.816Z,43.72
2023-04-09T09:50:47.702Z,42.57
2023-04-09T09:53:15.545Z,42.36
2023-04-09T09:55:44.784Z,39.96
2023-04-09T09:58:25.854Z,40.71
2023-04-09T10:00:53.568Z,39.54
2023-04-09T10:03:23.344Z,38.38
2023-04-09T10:05:50.968Z,38.95
2023-04-09T10:08:21.732Z,38.86
2023-04-09T10:10:49.535Z,37.99
2023-04-09T10:13:24.645Z,38.41
2023-04-09T10:15:52.273Z,38.71
2023-04-09T10:18:19.856Z,38.72
2023-04-09T10:21:16.145Z,38.43
2023-04-09T10:23:46.104Z,38.11
2023-04-09T10:26:14.163Z,38.66
2023-04-09T10:28:42.209Z,38.95
2023-04-09T10:31:11.468Z,38.67
2023-04-09T10:33:39.854Z,38.68
2023-04-09T10:36:12.324Z,39.24
2023-04-09T10:38:47.123Z,38.57
2023-04-09T10:41:28.386Z,39.16
2023-04-09T10:43:55.600Z,38.05
2023-04-09T10:46:30.030Z,37.70
2023-04-09T10:49:13.871Z,37.75
2023-04-09T10:51:41.329Z,38.10
2023-04-09T10:54:33.429Z,37.29
2023-04-09T10:57:09.145Z,36.04
2023-04-09T11:00:07.138Z,34.55
2023-04-09T11:02:40.240Z,32.91
2023-04-09T11:05:31.861Z,33.09
2023-04-09T11:08:14.050Z,33.21
2023-04-09T11:10:44.119Z,34.53
2023-04-09T11:13:18.295Z,35.62
2023-04-09T11:15:46.718Z,35.80
2023-04-09T11:18:20.763Z,35.03
2023-04-09T11:20:48.087Z,35.45
2023-04-09T11:23:15.910Z,36.06
2023-04-09T11:25:44.142Z,35.38
2023-04-09T11:28:12.142Z,35.82
2023-04-09T11:30:39.804Z,36.46
2023-04-09T11:33:08.840Z,36.93
2023-04-09T11:35:37.226Z,36.94
2023-04-09T11:38:10.749Z,36.89
2023-04-09T11:40:48.499Z,36.08
2023-04-09T11:43:21.076Z,35.68
2023-04-09T11:45:49.037Z,36.00
2023-04-09T11:48:18.513Z,34.81
2023-04-09T11:50:46.692Z,33.89
2023-04-09T11:53:52.556Z,32.20
2023-04-09T11:56:20.583Z,32.96
2023-04-09T11:58:49.248Z,32.75
2023-04-09T12:01:17.086Z,32.33
2023-04-09T12:03:44.919Z,32.22
2023-04-09T12:06:12.508Z,33.01
2023-04-09T12:08:40.344Z,32.48
2023-04-09T12:11:16.077Z,32.42
2023-04-09T12:13:44.724Z,33.04
2023-04-09T12:16:13.202Z,32.92
2023-04-09T12:18:40.584Z,33.77
2023-04-09T12:21:08.235Z,33.78
2023-04-09T12:23:36.325Z,34.01
2023-04-09T12:26:04.523Z,33.49
2023-04-09T12:28:32.342Z,34.38
2023-04-09T12:31:00.214Z,34.38
2023-04-09T12:33:27.890Z,34.18
2023-04-09T12:35:58.366Z,34.46
2023-04-09T12:38:29.922Z,34.63
2023-04-09T12:40:57.478Z,35.16
2023-04-09T12:43:25.565Z,35.58
2023-04-09T12:45:53.277Z,34.32
2023-04-09T12:48:21.021Z,34.73
2023-04-09T12:50:48.457Z,34.22
2023-04-09T12:53:16.156Z,35.11
2023-04-09T12:55:43.984Z,34.08
2023-04-09T12:58:12.127Z,34.57
2023-04-09T13:00:40.601Z,34.37
2023-04-09T13:03:09.079Z,33.50
2023-04-09T13:05:37.404Z,33.11
2023-04-09T13:08:05.435Z,33.02
2023-04-09T13:10:33.442Z,33.74
2023-04-09T13:13:00.976Z,33.33
2023-04-09T13:15:31.766Z,33.42
2023-04-09T13:17:59.940Z,33.21
2023-04-09T13:20:27.589Z,31.02
2023-04-09T13:22:55.604Z,29.54
2023-04-09T13:25:23.380Z,27.41
2023-04-09T13:27:51.132Z,25.54
2023-04-09T13:30:19.427Z,25.23
2023-04-09T13:32:47.503Z,24.68
2023-04-09T13:35:15.213Z,25.36
2023-04-09T13:37:43.501Z,26.37
2023-04-09T13:40:13.142Z,27.33
2023-04-09T13:42:41.001Z,28.55
2023-04-09T13:45:10.155Z,29.51
2023-04-09T13:47:38.023Z,29.03
2023-04-09T13:50:10.285Z,30.05
2023-04-09T13:52:38.816Z,30.39
2023-04-09T13:55:10.446Z,30.92
2023-04-09T13:57:38.020Z,30.74
2023-04-09T14:00:09.792Z,31.12
2023-04-09T14:02:37.558Z,31.19
2023-04-09T14:05:06.740Z,31.41
2023-04-09T14:07:34.934Z,30.24
2023-04-09T14:10:02.882Z,30.41
2023-04-09T14:12:30.742Z,30.33
2023-04-09T14:14:59.046Z,28.81
2023-04-09T14:17:27.653Z,28.54
2023-04-09T14:19:55.384Z,27.95
2023-04-09T14:22:23.373Z,26.92
2023-04-09T14:24:51.179Z,26.07
2023-04-09T14:27:19.491Z,25.78
2023-04-09T14:29:47.498Z,26.06
2023-04-09T14:32:15.328Z,26.09
2023-04-09T14:34:42.744Z,25.63
2023-04-09T14:37:10.626Z,25.51
2023-04-09T14:39:38.499Z,25.22
2023-04-09T14:42:06.456Z,25.40
2023-04-09T14:44:34.503Z,25.49
2023-04-09T14:47:02.633Z,25.90
2023-04-09T14:49:30.914Z,27.31
2023-04-09T14:51:57.602Z,28.66
2023-04-09T14:54:32.439Z,29.99
2023-04-09T14:57:00.061Z,30.25
2023-04-09T14:59:27.604Z,30.68
2023-04-09T15:01:55.876Z,31.27
2023-04-09T15:04:23.802Z,31.69
2023-04-09T15:06:51.515Z,31.88
2023-04-09T15:09:19.589Z,32.47
2023-04-09T15:11:47.650Z,32.24
2023-04-09T15:14:15.754Z,32.35
2023-04-09T15:16:43.874Z,33.01
2023-04-09T15:19:11.659Z,32.77
2023-04-09T15:21:42.552Z,32.36
2023-04-09T15:24:10.490Z,33.08
2023-04-09T15:26:38.473Z,32.99
2023-04-09T15:29:07.779Z,33.06
2023-04-09T15:31:35.127Z,33.66
2023-04-09T15:34:03.302Z,33.69
2023-04-09T15:36:31.645Z,33.90
2023-04-09T15:39:01.097Z,34.52
2023-04-09T15:41:29.161Z,36.53
2023-04-09T15:43:56.757Z,38.26
2023-04-09T15:46:24.480Z,39.36
2023-04-09T15:48:55.793Z,40.76
2023-04-09T15:51:23.986Z,41.20
2023-04-09T15:53:52.091Z,40.40
2023-04-09T15:56:19.800Z,40.45
2023-04-09T15:58:47.376Z,40.22
2023-04-09T16:01:15.232Z,40.42
2023-04-09T16:03:43.608Z,40.08
2023-04-09T16:06:13.506Z,40.09
2023-04-09T16:08:41.292Z,40.14
2023-04-09T16:11:09.928Z,40.96
2023-04-09T16:13:37.928Z,40.92
2023-04-09T16:16:07.390Z,41.17
2023-04-09T16:18:34.521Z,41.81
2023-04-09T16:21:01.613Z,43.76
2023-04-09T16:23:30.836Z,44.82
2023-04-09T16:25:58.839Z,45.31
2023-04-09T16:28:26.634Z,46.61
2023-04-09T16:30:54.460Z,46.50
2023-04-09T16:33:22.641Z,47.19
2023-04-09T16:35:50.570Z,47.40
2023-04-09T16:38:18.907Z,48.76
2023-04-09T16:40:46.574Z,49.98
2023-04-09T16:43:17.715Z,50.61
2023-04-09T16:45:45.452Z,51.00
2023-04-09T16:48:13.558Z,51.25
2023-04-09T16:50:41.339Z,51.97
2023-04-09T16:53:09.344Z,52.01
2023-04-09T16:55:37.411Z,53.09
2023-04-09T16:58:05.678Z,53.96
2023-04-09T17:00:33.419Z,52.60
2023-04-09T17:03:02.305Z,52.37
2023-04-09T17:05:31.307Z,52.77
2023-04-09T17:07:59.076Z,52.16
2023-04-09T17:10:27.703Z,52.46
2023-04-09T17:12:55.786Z,51.94
2023-04-09T17:15:25.382Z,51.86
2023-04-09T17:17:53.912Z,52.21
2023-04-09T17:20:22.843Z,52.26
2023-04-09T17:22:50.640Z,52.59
2023-04-09T17:25:18.036Z,53.02
2023-04-09T17:27:45.919Z,52.23
2023-04-09T17:30:14.090Z,52.44
2023-04-09T17:32:43.696Z,51.75
2023-04-09T17:35:11.421Z,50.89
2023-04-09T17:37:39.568Z,50.46
2023-04-09T17:40:12.427Z,50.19
2023-04-09T17:42:40.120Z,50.74
2023-04-09T17:45:18.292Z,50.21
2023-04-09T17:47:47.044Z,49.93
2023-04-09T17:50:15.304Z,50.07
2023-04-09T17:52:43.409Z,50.91
2023-04-09T17:55:13.086Z,50.99
2023-04-09T17:57:40.296Z,51.43
2023-04-09T18:00:11.149Z,51.54
2023-04-09T18:02:39.986Z,52.13
2023-04-09T18:05:09.628Z,52.29
2023-04-09T18:07:38.684Z,52.46
2023-04-09T18:10:08.236Z,52.32
2023-04-09T18:12:35.927Z,51.82
2023-04-09T18:15:04.417Z,51.62
2023-04-09T18:17:32.528Z,51.47
2023-04-09T18:20:00.345Z,51.05
2023-04-09T18:22:28.388Z,51.63
2023-04-09T18:24:56.658Z,51.30
2023-04-09T18:27:24.827Z,51.02
2023-04-09T18:29:52.575Z,51.39
2023-04-09T18:32:20.255Z,51.38
2023-04-09T18:34:48.268Z,51.18
2023-04-09T18:37:16.284Z,51.35
2023-04-09T18:39:44.313Z,52.03
2023-04-09T18:42:11.523Z,51.29
2023-04-09T18:44:39.145Z,51.70
2023-04-09T18:47:09.317Z,51.62
2023-04-09T18:49:37.110Z,51.93
2023-04-09T18:52:09.398Z,52.11
2023-04-09T18:54:37.534Z,52.50
2023-04-09T18:57:05.210Z,52.70
2023-04-09T18:59:34.664Z,52.82
2023-04-09T19:02:05.221Z,53.33
2023-04-09T19:04:39.627Z,53.08
2023-04-09T19:07:07.813Z,53.53
2023-04-09T19:09:37.122Z,53.77
2023-04-09T19:12:06.132Z,53.86
2023-04-09T19:14:33.569Z,54.50
2023-04-09T19:17:03.283Z,54.45
2023-04-09T19:19:31.345Z,54.66
2023-04-09T19:22:00.017Z,54.59
2023-04-09T19:24:28.049Z,55.20
2023-04-09T19:26:56.709Z,55.28
2023-04-09T19:29:24.747Z,55.56
2023-04-09T19:31:52.754Z,55.37
2023-04-09T19:34:20.566Z,55.13
2023-04-09T19:36:48.563Z,55.02
2023-04-09T19:39:16.162Z,55.37
2023-04-09T19:41:43.264Z,55.40
2023-04-09T19:44:11.385Z,55.17
2023-04-09T19:46:39.385Z,55.52
2023-04-09T19:49:07.470Z,55.35
2023-04-09T19:51:35.017Z,55.45
2023-04-09T19:54:02.626Z,54.86
2023-04-09T19:56:30.958Z,54.71
2023-04-09T19:59:00.548Z,54.50
2023-04-09T20:01:28.795Z,54.23
2023-04-09T20:03:56.950Z,54.05
2023-04-09T20:06:24.670Z,53.82
2023-04-09T20:08:53.536Z,53.91
2023-04-09T20:11:21.254Z,53.91
2023-04-09T20:13:49.652Z,54.09
2023-04-09T20:16:17.499Z,54.13
2023-04-09T20:18:45.372Z,54.56
2023-04-09T20:21:14.552Z,54.33
2023-04-09T20:23:42.408Z,54.43
2023-04-09T20:26:11.321Z,54.38
2023-04-09T20:28:39.353Z,54.84
2023-04-09T20:31:07.666Z,54.95
2023-04-09T20:33:35.638Z,55.00
2023-04-09T20:36:06.858Z,55.39
2023-04-09T20:38:34.804Z,55.92
2023-04-09T20:41:02.891Z,55.77
2023-04-09T20:43:30.423Z,56.22
2023-04-09T20:45:58.443Z,56.40
2023-04-09T20:48:26.427Z,56.71
2023-04-09T20:50:54.161Z,57.16
2023-04-09T20:53:22.008Z,57.51
2023-04-09T20:55:50.101Z,57.53
2023-04-09T20:58:17.994Z,57.85
2023-04-09T21:00:45.799Z,57.80
2023-04-09T21:03:17.224Z,57.93
2023-04-09T21:05:45.448Z,57.86
2023-04-09T21:08:15.499Z,57.79
2023-04-09T21:10:43.776Z,57.95
2023-04-09T21:13:12.049Z,57.67
2023-04-09T21:15:40.168Z,57.54
2023-04-09T21:18:07.972Z,57.56
2023-04-09T21:20:38.013Z,57.71
2023-04-09T21:23:06.063Z,57.47
2023-04-09T21:25:35.223Z,57.56
2023-04-09T21:28:03.631Z,57.50
2023-04-09T21:30:32.270Z,57.19
2023-04-09T21:33:01.504Z,57.47
2023-04-09T21:35:29.068Z,57.49
2023-04-09T21:37:56.798Z,57.78
2023-04-09T21:40:24.639Z,57.75
2023-04-09T21:42:51.654Z,58.01
2023-04-09T21:45:19.361Z,58.42
2023-04-09T21:47:47.291Z,58.67
2023-04-09T21:50:15.602Z,58.75
2023-04-09T21:52:45.575Z,58.98
2023-04-09T21:55:13.976Z,59.23
2023-04-09T21:57:41.989Z,59.36
2023-04-09T22:00:11.573Z,59.25
2023-04-09T22:02:39.825Z,59.66
2023-04-09T22:05:09.427Z,59.60
2023-04-09T22:07:39.278Z,59.71
2023-04-09T22:10:11.043Z,59.82
2023-04-09T22:12:38.566Z,60.16
2023-04-09T22:15:09.020Z,60.28
2023-04-09T22:17:36.765Z,60.53
2023-04-09T22:20:06.309Z,60.55
2023-04-09T22:22:33.939Z,60.30
2023-04-09T22:25:01.854Z,60.74
2023-04-09T22:27:29.963Z,60.57
2023-04-09T22:29:57.841Z,60.42
2023-04-09T22:32:29.161Z,60.30
2023-04-09T22:34:57.090Z,60.20
2023-04-09T22:37:24.589Z,60.31
2023-04-09T22:39:52.678Z,60.29
2023-04-09T22:42:21.060Z,60.57
2023-04-09T22:44:48.838Z,60.54
2023-04-09T22:47:16.771Z,60.27
2023-04-09T22:49:44.440Z,60.98
2023-04-09T22:52:12.123Z,60.94
2023-04-09T22:54:39.673Z,60.82
2023-04-09T22:57:08.071Z,61.00
2023-04-09T22:59:40.199Z,61.16
2023-04-09T23:02:09.393Z,61.28
2023-04-09T23:04:37.190Z,61.59
2023-04-09T23:07:04.908Z,61.77
2023-04-09T23:09:32.824Z,62.21
2023-04-09T23:12:01.221Z,62.15
2023-04-09T23:14:29.054Z,62.66
2023-04-09T23:16:56.492Z,62.98
2023-04-09T23:19:24.591Z,63.28
2023-04-09T23:21:52.480Z,63.32
2023-04-09T23:24:20.458Z,64.04
2023-04-09T23:26:49.180Z,63.99
2023-04-09T23:29:17.273Z,64.39
2023-04-09T23:31:45.278Z,64.62
2023-04-09T23:34:13.063Z,64.64
2023-04-09T23:36:41.033Z,64.81
2023-04-09T23:39:08.717Z,64.79
2023-04-09T23:41:36.683Z,65.58
2023-04-09T23:44:05.203Z,65.64
2023-04-09T23:46:32.935Z,66.30
2023-04-09T23:49:00.676Z,66.56
2023-04-09T23:51:28.336Z,66.57
2023-04-09T23:53:56.355Z,67.39
2023-04-09T23:56:23.996Z,67.52
2023-04-09T23:58:51.853Z,68.12
